sensor_id;sensor_type;location;lat;lon;timestamp;pressure;altitude;pressure_sealevel;temperature;humidity
84859;BME280;75115;42.984;23.244;2024-03-06T00:02:06;95092.88;;;3.65;71.03
84859;BME280;75115;42.984;23.244;2024-03-06T00:04:32;95095.03;;;3.60;71.19
84859;BME280;75115;42.984;23.244;2024-03-06T00:06:57;95098.41;;;3.61;71.42
84859;BME280;75115;42.984;23.244;2024-03-06T00:09:23;95104.75;;;3.57;71.25
84859;BME280;75115;42.984;23.244;2024-03-06T00:11:50;95102.03;;;3.48;71.38
84859;BME280;75115;42.984;23.244;2024-03-06T00:14:16;95100.00;;;3.42;70.51
84859;BME280;75115;42.984;23.244;2024-03-06T00:16:43;95101.06;;;3.40;70.44
84859;BME280;75115;42.984;23.244;2024-03-06T00:19:08;95106.03;;;3.32;70.44
84859;BME280;75115;42.984;23.244;2024-03-06T00:21:34;95100.75;;;3.23;70.70
84859;BME280;75115;42.984;23.244;2024-03-06T00:24:03;95102.09;;;3.18;70.58
84859;BME280;75115;42.984;23.244;2024-03-06T00:26:29;95101.53;;;3.05;72.32
84859;BME280;75115;42.984;23.244;2024-03-06T00:28:54;95096.78;;;3.00;72.04
84859;BME280;75115;42.984;23.244;2024-03-06T00:31:20;95100.66;;;2.94;71.15
84859;BME280;75115;42.984;23.244;2024-03-06T00:33:45;95100.50;;;2.86;71.86
84859;BME280;75115;42.984;23.244;2024-03-06T00:36:10;95107.03;;;2.69;71.87
84859;BME280;75115;42.984;23.244;2024-03-06T00:38:36;95107.13;;;2.58;71.41
84859;BME280;75115;42.984;23.244;2024-03-06T00:41:02;95103.31;;;2.53;71.16
84859;BME280;75115;42.984;23.244;2024-03-06T00:43:27;95109.50;;;2.50;71.75
84859;BME280;75115;42.984;23.244;2024-03-06T00:45:53;95111.81;;;2.32;71.46
84859;BME280;75115;42.984;23.244;2024-03-06T00:48:18;95105.44;;;2.27;72.76
84859;BME280;75115;42.984;23.244;2024-03-06T00:50:45;95112.44;;;2.24;72.06
84859;BME280;75115;42.984;23.244;2024-03-06T00:53:10;95115.94;;;2.23;72.15
84859;BME280;75115;42.984;23.244;2024-03-06T00:55:36;95124.09;;;2.17;71.74
84859;BME280;75115;42.984;23.244;2024-03-06T00:58:02;95116.44;;;2.17;71.63
84859;BME280;75115;42.984;23.244;2024-03-06T01:00:27;95117.25;;;2.18;72.65
84859;BME280;75115;42.984;23.244;2024-03-06T01:02:53;95104.63;;;2.05;72.14
84859;BME280;75115;42.984;23.244;2024-03-06T01:05:18;95108.13;;;2.04;72.47
84859;BME280;75115;42.984;23.244;2024-03-06T01:07:44;95109.97;;;2.02;72.75
84859;BME280;75115;42.984;23.244;2024-03-06T01:10:09;95118.97;;;1.96;72.33
84859;BME280;75115;42.984;23.244;2024-03-06T01:12:36;95118.16;;;1.96;72.83
84859;BME280;75115;42.984;23.244;2024-03-06T01:15:01;95117.38;;;1.84;73.02
84859;BME280;75115;42.984;23.244;2024-03-06T01:17:27;95116.00;;;1.80;72.76
84859;BME280;75115;42.984;23.244;2024-03-06T01:19:52;95117.69;;;1.70;72.45
84859;BME280;75115;42.984;23.244;2024-03-06T01:22:18;95114.19;;;1.71;73.06
84859;BME280;75115;42.984;23.244;2024-03-06T01:24:44;95117.44;;;1.73;73.31
84859;BME280;75115;42.984;23.244;2024-03-06T01:27:10;95120.00;;;1.73;73.74
84859;BME280;75115;42.984;23.244;2024-03-06T01:29:35;95122.97;;;1.46;73.94
84859;BME280;75115;42.984;23.244;2024-03-06T01:32:01;95125.09;;;1.41;74.32
84859;BME280;75115;42.984;23.244;2024-03-06T01:34:27;95133.69;;;1.29;75.12
84859;BME280;75115;42.984;23.244;2024-03-06T01:36:52;95129.97;;;1.33;75.20
84859;BME280;75115;42.984;23.244;2024-03-06T01:39:18;95126.94;;;1.39;74.92
84859;BME280;75115;42.984;23.244;2024-03-06T01:41:45;95139.38;;;1.43;75.06
84859;BME280;75115;42.984;23.244;2024-03-06T01:44:12;95127.28;;;1.45;74.52
84859;BME280;75115;42.984;23.244;2024-03-06T01:46:38;95139.91;;;1.47;74.62
84859;BME280;75115;42.984;23.244;2024-03-06T01:49:03;95136.91;;;1.53;74.60
84859;BME280;75115;42.984;23.244;2024-03-06T01:51:29;95135.84;;;1.56;74.73
84859;BME280;75115;42.984;23.244;2024-03-06T01:53:55;95135.59;;;1.59;74.52
84859;BME280;75115;42.984;23.244;2024-03-06T01:56:21;95132.94;;;1.60;75.07
84859;BME280;75115;42.984;23.244;2024-03-06T01:58:47;95128.38;;;1.64;74.14
84859;BME280;75115;42.984;23.244;2024-03-06T02:01:13;95127.13;;;1.58;73.99
84859;BME280;75115;42.984;23.244;2024-03-06T02:03:39;95131.09;;;1.51;74.54
84859;BME280;75115;42.984;23.244;2024-03-06T02:06:05;95127.50;;;1.54;74.07
84859;BME280;75115;42.984;23.244;2024-03-06T02:08:31;95125.97;;;1.51;73.25
84859;BME280;75115;42.984;23.244;2024-03-06T02:10:58;95129.97;;;1.44;73.46
84859;BME280;75115;42.984;23.244;2024-03-06T02:13:26;95131.72;;;1.43;74.23
84859;BME280;75115;42.984;23.244;2024-03-06T02:15:51;95133.69;;;1.40;73.97
84859;BME280;75115;42.984;23.244;2024-03-06T02:18:16;95130.19;;;1.30;73.62
84859;BME280;75115;42.984;23.244;2024-03-06T02:20:42;95136.25;;;1.29;74.42
84859;BME280;75115;42.984;23.244;2024-03-06T02:23:07;95132.06;;;1.28;74.00
84859;BME280;75115;42.984;23.244;2024-03-06T02:25:33;95140.56;;;1.28;74.31
84859;BME280;75115;42.984;23.244;2024-03-06T02:27:58;95139.03;;;1.25;74.10
84859;BME280;75115;42.984;23.244;2024-03-06T02:30:27;95135.00;;;1.23;74.33
84859;BME280;75115;42.984;23.244;2024-03-06T02:32:52;95131.28;;;1.27;74.40
84859;BME280;75115;42.984;23.244;2024-03-06T02:35:17;95130.78;;;1.33;73.93
84859;BME280;75115;42.984;23.244;2024-03-06T02:37:43;95140.88;;;1.35;73.94
84859;BME280;75115;42.984;23.244;2024-03-06T02:40:11;95154.34;;;1.37;74.50
84859;BME280;75115;42.984;23.244;2024-03-06T02:42:37;95144.50;;;1.32;74.35
84859;BME280;75115;42.984;23.244;2024-03-06T02:45:05;95145.44;;;1.31;74.28
84859;BME280;75115;42.984;23.244;2024-03-06T02:47:31;95151.09;;;1.35;74.35
84859;BME280;75115;42.984;23.244;2024-03-06T02:59:56;95160.13;;;1.50;73.55
84859;BME280;75115;42.984;23.244;2024-03-06T03:02:22;95154.22;;;1.49;73.73
84859;BME280;75115;42.984;23.244;2024-03-06T03:04:49;95156.19;;;1.46;73.40
84859;BME280;75115;42.984;23.244;2024-03-06T03:07:14;95164.31;;;1.51;73.71
84859;BME280;75115;42.984;23.244;2024-03-06T03:09:39;95161.75;;;1.51;73.44
84859;BME280;75115;42.984;23.244;2024-03-06T03:12:05;95164.09;;;1.54;73.79
84859;BME280;75115;42.984;23.244;2024-03-06T03:14:31;95166.03;;;1.62;74.25
84859;BME280;75115;42.984;23.244;2024-03-06T03:16:57;95166.84;;;1.62;74.44
84859;BME280;75115;42.984;23.244;2024-03-06T03:19:22;95168.91;;;1.68;74.06
84859;BME280;75115;42.984;23.244;2024-03-06T03:21:48;95167.19;;;1.69;74.03
84859;BME280;75115;42.984;23.244;2024-03-06T03:24:13;95164.75;;;1.67;74.35
84859;BME280;75115;42.984;23.244;2024-03-06T03:26:38;95164.16;;;1.75;74.53
84859;BME280;75115;42.984;23.244;2024-03-06T03:29:04;95160.28;;;1.81;74.15
84859;BME280;75115;42.984;23.244;2024-03-06T03:31:31;95158.19;;;1.86;74.39
84859;BME280;75115;42.984;23.244;2024-03-06T03:33:58;95160.50;;;1.89;73.94
84859;BME280;75115;42.984;23.244;2024-03-06T03:36:23;95165.38;;;1.92;74.33
84859;BME280;75115;42.984;23.244;2024-03-06T03:38:50;95155.00;;;1.93;74.12
84859;BME280;75115;42.984;23.244;2024-03-06T03:41:15;95166.31;;;1.91;74.82
84859;BME280;75115;42.984;23.244;2024-03-06T03:43:42;95165.00;;;1.96;74.37
84859;BME280;75115;42.984;23.244;2024-03-06T03:46:08;95165.34;;;2.03;73.58
84859;BME280;75115;42.984;23.244;2024-03-06T03:48:34;95166.97;;;2.04;72.85
84859;BME280;75115;42.984;23.244;2024-03-06T03:51:03;95172.75;;;2.06;72.79
84859;BME280;75115;42.984;23.244;2024-03-06T03:53:35;95171.03;;;2.07;73.43
84859;BME280;75115;42.984;23.244;2024-03-06T03:56:01;95175.22;;;2.08;72.37
84859;BME280;75115;42.984;23.244;2024-03-06T03:58:27;95179.38;;;2.09;72.99
84859;BME280;75115;42.984;23.244;2024-03-06T04:00:52;95176.03;;;2.08;72.91
84859;BME280;75115;42.984;23.244;2024-03-06T04:03:19;95179.25;;;2.10;73.35
84859;BME280;75115;42.984;23.244;2024-03-06T04:05:47;95176.22;;;2.16;72.64
84859;BME280;75115;42.984;23.244;2024-03-06T04:08:12;95176.78;;;2.20;73.04
84859;BME280;75115;42.984;23.244;2024-03-06T04:10:38;95182.97;;;2.17;72.86
84859;BME280;75115;42.984;23.244;2024-03-06T04:13:03;95174.59;;;2.15;72.64
84859;BME280;75115;42.984;23.244;2024-03-06T04:15:29;95190.06;;;2.14;72.44
84859;BME280;75115;42.984;23.244;2024-03-06T04:17:54;95199.47;;;2.13;73.39
84859;BME280;75115;42.984;23.244;2024-03-06T04:20:20;95196.25;;;2.11;73.00
84859;BME280;75115;42.984;23.244;2024-03-06T04:22:45;95200.88;;;2.17;72.99
84859;BME280;75115;42.984;23.244;2024-03-06T04:25:13;95194.00;;;2.18;72.65
84859;BME280;75115;42.984;23.244;2024-03-06T04:27:38;95203.28;;;2.19;73.23
84859;BME280;75115;42.984;23.244;2024-03-06T04:30:04;95204.66;;;2.23;73.10
84859;BME280;75115;42.984;23.244;2024-03-06T04:32:29;95203.88;;;2.22;72.63
84859;BME280;75115;42.984;23.244;2024-03-06T04:34:55;95207.13;;;2.24;73.07
84859;BME280;75115;42.984;23.244;2024-03-06T04:37:21;95212.34;;;2.23;74.06
84859;BME280;75115;42.984;23.244;2024-03-06T04:39:48;95211.88;;;2.29;73.42
84859;BME280;75115;42.984;23.244;2024-03-06T04:42:13;95208.25;;;2.32;74.19
84859;BME280;75115;42.984;23.244;2024-03-06T04:44:38;95208.00;;;2.35;75.95
84859;BME280;75115;42.984;23.244;2024-03-06T04:47:04;95213.69;;;2.38;73.68
84859;BME280;75115;42.984;23.244;2024-03-06T04:49:33;95208.25;;;2.32;74.18
84859;BME280;75115;42.984;23.244;2024-03-06T04:51:59;95222.25;;;2.28;73.15
84859;BME280;75115;42.984;23.244;2024-03-06T04:54:24;95224.31;;;2.34;73.45
84859;BME280;75115;42.984;23.244;2024-03-06T04:56:50;95222.56;;;2.34;73.46
84859;BME280;75115;42.984;23.244;2024-03-06T04:59:15;95225.47;;;2.30;73.78
84859;BME280;75115;42.984;23.244;2024-03-06T05:01:41;95227.22;;;2.29;74.20
84859;BME280;75115;42.984;23.244;2024-03-06T05:04:06;95228.00;;;2.41;75.16
84859;BME280;75115;42.984;23.244;2024-03-06T05:06:32;95224.38;;;2.43;74.59
84859;BME280;75115;42.984;23.244;2024-03-06T05:08:57;95224.81;;;2.48;74.06
84859;BME280;75115;42.984;23.244;2024-03-06T05:11:23;95224.81;;;2.48;74.60
84859;BME280;75115;42.984;23.244;2024-03-06T05:13:48;95226.50;;;2.59;76.27
84859;BME280;75115;42.984;23.244;2024-03-06T05:16:14;95230.44;;;2.63;76.65
84859;BME280;75115;42.984;23.244;2024-03-06T05:18:40;95234.97;;;2.71;75.91
84859;BME280;75115;42.984;23.244;2024-03-06T05:21:05;95233.50;;;2.78;76.04
84859;BME280;75115;42.984;23.244;2024-03-06T05:23:31;95230.13;;;2.78;76.94
84859;BME280;75115;42.984;23.244;2024-03-06T05:25:56;95245.13;;;2.82;76.94
84859;BME280;75115;42.984;23.244;2024-03-06T05:28:21;95234.38;;;2.88;75.92
84859;BME280;75115;42.984;23.244;2024-03-06T05:30:47;95243.59;;;2.91;76.02
84859;BME280;75115;42.984;23.244;2024-03-06T05:33:12;95247.38;;;2.96;75.30
84859;BME280;75115;42.984;23.244;2024-03-06T05:35:38;95242.56;;;3.03;75.31
84859;BME280;75115;42.984;23.244;2024-03-06T05:38:03;95240.88;;;3.13;76.16
84859;BME280;75115;42.984;23.244;2024-03-06T05:40:29;95248.75;;;3.21;76.97
84859;BME280;75115;42.984;23.244;2024-03-06T05:42:56;95243.09;;;3.28;77.11
84859;BME280;75115;42.984;23.244;2024-03-06T05:45:21;95245.72;;;3.37;76.82
84859;BME280;75115;42.984;23.244;2024-03-06T05:47:46;95251.38;;;3.41;76.19
84859;BME280;75115;42.984;23.244;2024-03-06T05:50:13;95253.44;;;3.47;75.44
84859;BME280;75115;42.984;23.244;2024-03-06T05:52:38;95249.69;;;3.51;74.91
84859;BME280;75115;42.984;23.244;2024-03-06T05:55:04;95248.19;;;3.48;74.56
84859;BME280;75115;42.984;23.244;2024-03-06T05:57:31;95254.63;;;3.43;74.58
84859;BME280;75115;42.984;23.244;2024-03-06T05:59:57;95258.34;;;3.29;75.91
84859;BME280;75115;42.984;23.244;2024-03-06T06:02:22;95260.38;;;3.25;75.55
84859;BME280;75115;42.984;23.244;2024-03-06T06:04:48;95261.41;;;3.23;75.27
84859;BME280;75115;42.984;23.244;2024-03-06T06:07:13;95259.94;;;3.20;75.33
84859;BME280;75115;42.984;23.244;2024-03-06T06:09:38;95257.00;;;3.25;76.09
84859;BME280;75115;42.984;23.244;2024-03-06T06:12:04;95255.66;;;3.31;75.21
84859;BME280;75115;42.984;23.244;2024-03-06T06:14:29;95253.09;;;3.31;75.65
84859;BME280;75115;42.984;23.244;2024-03-06T06:16:56;95248.63;;;3.33;75.82
84859;BME280;75115;42.984;23.244;2024-03-06T06:19:22;95248.59;;;3.23;75.46
84859;BME280;75115;42.984;23.244;2024-03-06T06:21:47;95248.91;;;3.30;75.17
84859;BME280;75115;42.984;23.244;2024-03-06T06:24:13;95244.00;;;3.47;75.98
84859;BME280;75115;42.984;23.244;2024-03-06T06:26:39;95248.25;;;3.68;74.41
84859;BME280;75115;42.984;23.244;2024-03-06T06:29:04;95247.88;;;3.82;74.62
84859;BME280;75115;42.984;23.244;2024-03-06T06:31:30;95248.19;;;3.98;73.37
84859;BME280;75115;42.984;23.244;2024-03-06T06:33:55;95256.75;;;4.18;73.37
84859;BME280;75115;42.984;23.244;2024-03-06T06:36:21;95258.66;;;4.36;73.26
84859;BME280;75115;42.984;23.244;2024-03-06T06:38:47;95252.31;;;4.40;72.89
84859;BME280;75115;42.984;23.244;2024-03-06T06:41:14;95257.59;;;4.48;71.46
84859;BME280;75115;42.984;23.244;2024-03-06T06:43:39;95248.41;;;4.55;71.68
84859;BME280;75115;42.984;23.244;2024-03-06T06:46:07;95250.97;;;4.65;70.99
84859;BME280;75115;42.984;23.244;2024-03-06T06:48:32;95252.31;;;4.69;71.21
84859;BME280;75115;42.984;23.244;2024-03-06T06:50:59;95248.25;;;4.66;70.65
84859;BME280;75115;42.984;23.244;2024-03-06T06:53:25;95252.84;;;4.63;70.19
84859;BME280;75115;42.984;23.244;2024-03-06T06:55:51;95258.53;;;4.66;71.31
84859;BME280;75115;42.984;23.244;2024-03-06T06:58:16;95254.09;;;4.68;70.01
84859;BME280;75115;42.984;23.244;2024-03-06T07:00:41;95245.56;;;4.68;70.92
84859;BME280;75115;42.984;23.244;2024-03-06T07:03:07;95257.84;;;4.74;70.73
84859;BME280;75115;42.984;23.244;2024-03-06T07:05:32;95254.59;;;4.82;69.66
84859;BME280;75115;42.984;23.244;2024-03-06T07:07:58;95253.09;;;4.79;70.42
84859;BME280;75115;42.984;23.244;2024-03-06T07:10:23;95260.28;;;4.85;71.06
84859;BME280;75115;42.984;23.244;2024-03-06T07:12:49;95254.59;;;4.91;70.78
84859;BME280;75115;42.984;23.244;2024-03-06T07:15:14;95260.28;;;4.95;70.90
84859;BME280;75115;42.984;23.244;2024-03-06T07:17:40;95254.97;;;4.96;70.92
84859;BME280;75115;42.984;23.244;2024-03-06T07:20:05;95259.84;;;4.99;69.80
84859;BME280;75115;42.984;23.244;2024-03-06T07:22:33;95253.09;;;4.98;69.66
84859;BME280;75115;42.984;23.244;2024-03-06T07:24:59;95261.88;;;5.06;70.37
84859;BME280;75115;42.984;23.244;2024-03-06T07:27:26;95256.19;;;5.12;69.24
84859;BME280;75115;42.984;23.244;2024-03-06T07:29:51;95246.66;;;5.22;69.51
84859;BME280;75115;42.984;23.244;2024-03-06T07:32:17;95250.03;;;5.32;69.36
84859;BME280;75115;42.984;23.244;2024-03-06T07:34:42;95253.78;;;5.47;69.91
84859;BME280;75115;42.984;23.244;2024-03-06T07:37:07;95250.75;;;5.62;67.46
84859;BME280;75115;42.984;23.244;2024-03-06T07:39:33;95243.41;;;5.67;67.12
84859;BME280;75115;42.984;23.244;2024-03-06T07:42:00;95244.59;;;5.72;68.17
84859;BME280;75115;42.984;23.244;2024-03-06T07:44:25;95238.56;;;5.91;67.92
84859;BME280;75115;42.984;23.244;2024-03-06T07:46:50;95232.03;;;6.24;66.13
84859;BME280;75115;42.984;23.244;2024-03-06T07:49:16;95239.75;;;6.42;65.60
84859;BME280;75115;42.984;23.244;2024-03-06T07:51:41;95237.59;;;6.73;64.88
84859;BME280;75115;42.984;23.244;2024-03-06T07:54:07;95233.84;;;7.64;62.19
84859;BME280;75115;42.984;23.244;2024-03-06T07:56:33;95234.94;;;8.62;59.03
84859;BME280;75115;42.984;23.244;2024-03-06T09:21:53;95209.56;;;10.02;58.04
84859;BME280;75115;42.984;23.244;2024-03-06T09:24:20;95206.56;;;10.21;56.65
84859;BME280;75115;42.984;23.244;2024-03-06T09:26:45;95214.38;;;10.44;57.51
84859;BME280;75115;42.984;23.244;2024-03-06T09:29:12;95212.75;;;10.66;57.13
84859;BME280;75115;42.984;23.244;2024-03-06T09:31:37;95200.78;;;10.88;56.81
84859;BME280;75115;42.984;23.244;2024-03-06T09:34:03;95194.63;;;11.04;55.20
84859;BME280;75115;42.984;23.244;2024-03-06T09:36:28;95186.44;;;11.30;55.28
84859;BME280;75115;42.984;23.244;2024-03-06T09:38:54;95185.53;;;11.52;52.40
84859;BME280;75115;42.984;23.244;2024-03-06T09:41:21;95191.63;;;11.74;53.59
84859;BME280;75115;42.984;23.244;2024-03-06T09:43:46;95189.66;;;11.91;51.17
84859;BME280;75115;42.984;23.244;2024-03-06T09:46:12;95185.00;;;12.01;49.91
84859;BME280;75115;42.984;23.244;2024-03-06T09:48:46;95182.34;;;12.16;49.02
84859;BME280;75115;42.984;23.244;2024-03-06T09:51:12;95184.59;;;12.19;48.28
84859;BME280;75115;42.984;23.244;2024-03-06T09:53:39;95174.81;;;12.21;48.13
84859;BME280;75115;42.984;23.244;2024-03-06T09:56:05;95176.28;;;12.30;49.57
84859;BME280;75115;42.984;23.244;2024-03-06T09:58:31;95164.28;;;12.29;48.54
84859;BME280;75115;42.984;23.244;2024-03-06T10:01:01;95166.28;;;12.27;48.49
84859;BME280;75115;42.984;23.244;2024-03-06T10:03:32;95160.84;;;12.43;48.04
84859;BME280;75115;42.984;23.244;2024-03-06T10:05:58;95165.28;;;12.49;48.52
84859;BME280;75115;42.984;23.244;2024-03-06T10:08:23;95169.50;;;12.51;47.48
84859;BME280;75115;42.984;23.244;2024-03-06T10:10:52;95161.88;;;12.49;48.10
84859;BME280;75115;42.984;23.244;2024-03-06T10:13:17;95164.06;;;12.45;47.77
84859;BME280;75115;42.984;23.244;2024-03-06T10:15:59;95155.31;;;12.53;48.28
84859;BME280;75115;42.984;23.244;2024-03-06T10:18:27;95161.41;;;12.60;47.29
84859;BME280;75115;42.984;23.244;2024-03-06T10:20:52;95157.00;;;12.89;48.39
84859;BME280;75115;42.984;23.244;2024-03-06T10:23:19;95153.13;;;12.78;46.97
84859;BME280;75115;42.984;23.244;2024-03-06T10:25:46;95150.03;;;12.89;47.32
84859;BME280;75115;42.984;23.244;2024-03-06T10:28:12;95139.84;;;12.94;45.73
84859;BME280;75115;42.984;23.244;2024-03-06T10:30:40;95140.28;;;12.98;47.18
84859;BME280;75115;42.984;23.244;2024-03-06T10:33:09;95133.88;;;13.01;47.06
84859;BME280;75115;42.984;23.244;2024-03-06T10:35:35;95136.97;;;13.11;46.99
84859;BME280;75115;42.984;23.244;2024-03-06T10:38:04;95130.91;;;13.10;45.46
84859;BME280;75115;42.984;23.244;2024-03-06T10:40:37;95134.16;;;13.12;48.01
84859;BME280;75115;42.984;23.244;2024-03-06T10:43:04;95136.09;;;13.04;48.72
84859;BME280;75115;42.984;23.244;2024-03-06T10:48:04;95130.78;;;12.62;48.35
84859;BME280;75115;42.984;23.244;2024-03-06T10:50:31;95135.69;;;12.51;49.67
84859;BME280;75115;42.984;23.244;2024-03-06T10:52:57;95154.25;;;12.26;50.84
84859;BME280;75115;42.984;23.244;2024-03-06T10:55:24;95152.47;;;12.05;50.77
84859;BME280;75115;42.984;23.244;2024-03-06T10:57:52;95159.91;;;11.93;51.65
84859;BME280;75115;42.984;23.244;2024-03-06T11:00:18;95169.84;;;11.75;54.04
84859;BME280;75115;42.984;23.244;2024-03-06T11:02:46;95163.53;;;11.48;55.43
84859;BME280;75115;42.984;23.244;2024-03-06T11:05:14;95167.00;;;11.11;57.25
84859;BME280;75115;42.984;23.244;2024-03-06T11:07:39;95173.63;;;10.76;59.24
84859;BME280;75115;42.984;23.244;2024-03-06T11:10:05;95168.38;;;10.46;62.75
84859;BME280;75115;42.984;23.244;2024-03-06T11:12:36;95173.31;;;10.33;62.83
84859;BME280;75115;42.984;23.244;2024-03-06T11:17:36;95174.63;;;9.97;63.98
84859;BME280;75115;42.984;23.244;2024-03-06T11:28:22;95164.88;;;9.68;65.79
84859;BME280;75115;42.984;23.244;2024-03-06T11:33:20;95159.69;;;9.68;69.48
84859;BME280;75115;42.984;23.244;2024-03-06T11:38:40;95153.97;;;9.81;67.95
84859;BME280;75115;42.984;23.244;2024-03-06T11:41:06;95159.28;;;9.88;67.75
84859;BME280;75115;42.984;23.244;2024-03-06T11:43:42;95151.34;;;9.89;67.70
84859;BME280;75115;42.984;23.244;2024-03-06T11:46:09;95147.84;;;9.82;68.71
84859;BME280;75115;42.984;23.244;2024-03-06T11:48:36;95147.69;;;9.75;68.97
84859;BME280;75115;42.984;23.244;2024-03-06T11:51:02;95139.34;;;9.65;68.67
84859;BME280;75115;42.984;23.244;2024-03-06T11:53:33;95144.94;;;9.77;67.57
84859;BME280;75115;42.984;23.244;2024-03-06T11:55:58;95138.91;;;9.85;69.53
84859;BME280;75115;42.984;23.244;2024-03-06T11:58:24;95142.53;;;9.98;68.87
84859;BME280;75115;42.984;23.244;2024-03-06T12:00:50;95135.75;;;9.97;69.42
84859;BME280;75115;42.984;23.244;2024-03-06T12:03:15;95128.13;;;10.04;68.50
84859;BME280;75115;42.984;23.244;2024-03-06T12:05:42;95127.38;;;10.18;68.49
84859;BME280;75115;42.984;23.244;2024-03-06T12:08:07;95124.25;;;10.23;65.77
84859;BME280;75115;42.984;23.244;2024-03-06T12:10:37;95123.25;;;10.32;63.16
84859;BME280;75115;42.984;23.244;2024-03-06T12:13:03;95121.69;;;10.46;67.34
84859;BME280;75115;42.984;23.244;2024-03-06T12:15:29;95112.31;;;10.45;62.80
84859;BME280;75115;42.984;23.244;2024-03-06T12:17:55;95114.91;;;10.45;64.53
84859;BME280;75115;42.984;23.244;2024-03-06T12:20:21;95108.28;;;10.42;62.12
84859;BME280;75115;42.984;23.244;2024-03-06T12:22:52;95112.66;;;10.42;64.38
84859;BME280;75115;42.984;23.244;2024-03-06T12:25:23;95103.69;;;10.44;62.97
84859;BME280;75115;42.984;23.244;2024-03-06T12:27:50;95104.16;;;10.48;63.88
84859;BME280;75115;42.984;23.244;2024-03-06T12:30:22;95099.91;;;10.55;62.11
84859;BME280;75115;42.984;23.244;2024-03-06T12:35:26;95103.41;;;10.62;63.13
84859;BME280;75115;42.984;23.244;2024-03-06T12:37:52;95093.13;;;10.69;63.11
84859;BME280;75115;42.984;23.244;2024-03-06T12:40:18;95104.78;;;10.88;63.13
84859;BME280;75115;42.984;23.244;2024-03-06T12:42:44;95093.41;;;11.04;61.38
84859;BME280;75115;42.984;23.244;2024-03-06T12:45:11;95096.22;;;11.17;59.91
84859;BME280;75115;42.984;23.244;2024-03-06T12:47:43;95091.78;;;11.32;58.35
84859;BME280;75115;42.984;23.244;2024-03-06T12:50:09;95091.34;;;11.43;57.49
84859;BME280;75115;42.984;23.244;2024-03-06T12:52:36;95088.66;;;11.52;54.61
84859;BME280;75115;42.984;23.244;2024-03-06T12:55:05;95081.91;;;11.57;54.72
84859;BME280;75115;42.984;23.244;2024-03-06T12:57:33;95084.97;;;11.61;55.49
84859;BME280;75115;42.984;23.244;2024-03-06T12:59:59;95090.75;;;11.63;56.96
84859;BME280;75115;42.984;23.244;2024-03-06T13:02:25;95085.66;;;11.69;54.62
84859;BME280;75115;42.984;23.244;2024-03-06T13:04:51;95084.31;;;11.73;53.97
84859;BME280;75115;42.984;23.244;2024-03-06T13:07:17;95086.28;;;11.71;54.86
84859;BME280;75115;42.984;23.244;2024-03-06T13:09:42;95076.94;;;11.77;54.81
84859;BME280;75115;42.984;23.244;2024-03-06T13:12:08;95080.97;;;11.80;55.26
84859;BME280;75115;42.984;23.244;2024-03-06T13:14:33;95068.97;;;11.79;54.35
84859;BME280;75115;42.984;23.244;2024-03-06T13:17:00;95074.53;;;11.76;54.60
84859;BME280;75115;42.984;23.244;2024-03-06T13:19:25;95068.91;;;11.72;55.76
84859;BME280;75115;42.984;23.244;2024-03-06T13:21:51;95065.63;;;11.63;55.44
84859;BME280;75115;42.984;23.244;2024-03-06T13:24:18;95064.78;;;11.63;55.87
84859;BME280;75115;42.984;23.244;2024-03-06T13:26:45;95054.28;;;11.71;55.31
84859;BME280;75115;42.984;23.244;2024-03-06T13:29:10;95051.53;;;11.72;55.60
84859;BME280;75115;42.984;23.244;2024-03-06T13:31:36;95057.75;;;11.78;56.29
84859;BME280;75115;42.984;23.244;2024-03-06T13:34:04;95056.09;;;11.85;56.36
84859;BME280;75115;42.984;23.244;2024-03-06T13:36:29;95052.13;;;11.89;56.54
84859;BME280;75115;42.984;23.244;2024-03-06T13:38:56;95046.41;;;12.01;55.72
84859;BME280;75115;42.984;23.244;2024-03-06T13:41:22;95045.50;;;12.08;56.18
84859;BME280;75115;42.984;23.244;2024-03-06T13:43:47;95049.97;;;12.14;54.92
84859;BME280;75115;42.984;23.244;2024-03-06T13:46:13;95052.44;;;12.22;55.12
84859;BME280;75115;42.984;23.244;2024-03-06T13:48:38;95039.44;;;12.22;55.23
84859;BME280;75115;42.984;23.244;2024-03-06T13:51:04;95035.19;;;12.21;53.27
84859;BME280;75115;42.984;23.244;2024-03-06T13:53:30;95044.19;;;12.19;53.98
84859;BME280;75115;42.984;23.244;2024-03-06T13:55:56;95039.00;;;12.19;54.79
84859;BME280;75115;42.984;23.244;2024-03-06T13:58:21;95033.84;;;12.26;54.09
84859;BME280;75115;42.984;23.244;2024-03-06T14:00:47;95038.47;;;12.30;54.14
84859;BME280;75115;42.984;23.244;2024-03-06T14:03:12;95034.34;;;12.36;53.62
84859;BME280;75115;42.984;23.244;2024-03-06T14:05:38;95037.53;;;12.38;54.54
84859;BME280;75115;42.984;23.244;2024-03-06T14:08:05;95033.97;;;12.39;54.18
84859;BME280;75115;42.984;23.244;2024-03-06T14:10:30;95033.78;;;12.40;53.74
84859;BME280;75115;42.984;23.244;2024-03-06T14:13:01;95027.38;;;12.43;53.99
84859;BME280;75115;42.984;23.244;2024-03-06T14:15:27;95038.19;;;12.46;54.22
84859;BME280;75115;42.984;23.244;2024-03-06T14:17:53;95041.59;;;12.47;54.68
84859;BME280;75115;42.984;23.244;2024-03-06T14:20:22;95042.03;;;12.51;55.92
84859;BME280;75115;42.984;23.244;2024-03-06T14:22:49;95039.44;;;12.51;55.91
84859;BME280;75115;42.984;23.244;2024-03-06T14:25:15;95035.44;;;12.48;55.91
84859;BME280;75115;42.984;23.244;2024-03-06T14:27:41;95043.03;;;12.49;56.21
84859;BME280;75115;42.984;23.244;2024-03-06T14:30:07;95035.22;;;12.49;55.34
84859;BME280;75115;42.984;23.244;2024-03-06T14:32:32;95037.47;;;12.53;53.09
84859;BME280;75115;42.984;23.244;2024-03-06T14:34:58;95038.03;;;12.48;53.78
84859;BME280;75115;42.984;23.244;2024-03-06T14:37:23;95037.03;;;12.49;54.31
84859;BME280;75115;42.984;23.244;2024-03-06T14:39:48;95034.00;;;12.45;52.00
84859;BME280;75115;42.984;23.244;2024-03-06T14:42:16;95042.59;;;12.46;53.08
84859;BME280;75115;42.984;23.244;2024-03-06T14:44:41;95038.78;;;12.42;53.57
84859;BME280;75115;42.984;23.244;2024-03-06T14:47:12;95038.78;;;12.42;54.77